メインページ
METAR-TAF:

METAR-TAF

空港 :

ウィーン, オーストリア

ウィーン国際空港

緯度: 48-07N, 経度: 016-34E, 海抜: 183m

現時点の気象観測

当レポートは34分前の05:50(UTC)に作成
南東の風 6kt、からの間で変化する
気温 1°C
湿度 93%
気圧 1000 hPa
視程10km以上
高度4000ftの雲はほとんどない
高度6000ftの千切れ雲あり

METAR: LOWW 140550Z 14006KT 100V170 9999 FEW040 BKN060 01/M00 Q1000 NOSIG

時間: 07:24 (06:24 UTC)

予報

当レポートは1時間9分前の05:15(UTC)に作成
予報は14日の 06時(UTC)から 15日の 12時(UTC)まで有効
南/南東の風 7kt
視程10km以上
1,500メートル以下は雲なし、積乱雲なし
14日の 08時(UTC)から 14日の 10時(UTC)まで徐々に
西/北西の風 20kt、最大33ktの突風を伴う
確率 40% :
14日の 10時(UTC)から 14日の 13時(UTC)まで一時的に
西/北西の風 27kt、最大45ktの突風を伴う
視程10km以上
高度4500ftの雲は散在している
高度8000ftの千切れ雲あり
弱いにわか雨
14日の 13時(UTC)から 14日の 15時(UTC)まで徐々に
南/南西の風 10kt
14日の 16時(UTC)から 14日の 18時(UTC)まで徐々に
南東の風 6kt
確率 30%
15日の 01時(UTC)から 15日の 07時(UTC)まで
変向風 2kt
高度1400ftの千切れ雲あり
小雨
15日の 07時(UTC)から 15日の 09時(UTC)まで徐々に
西/北西の風 13kt

TAF: LOWW 140515Z 1406/1512 16007KT CAVOK TX07/1412Z TN02/1406Z BECMG 1408/1410 29020G33KT PROB40 TEMPO 1410/1413 29027G45KT 9999 -SHRA SCT045 BKN080 BECMG 1413/1415 20010KT BECMG 1416/1418 14006KT PROB30 1501/1507 VRB02KT -RA BKN014 BECMG 1507/1509 29013KT

4,000以上の空港の気象観測と天気予報(METAR報とTAF報)

利用可能な観測所は地図上に黄色い丸と赤い丸で示す。

丸の上にカーソルを重ねると観測所名を参照できる。

次にクリックすると気象観測と天気予報を参照できる。

マップの切り替え:黒色「×」印の緑ボタンをクリックして拡大、「-」印の緑ボタンをクリックして縮小、緑色の三角印をクリックして隣りの地図に切り替え


METAR-TAF: